createdAt,value
2018-04-29T00:00:38.716Z,18.47
2018-04-29T00:03:06.906Z,18.70
2018-04-29T00:05:35.046Z,17.63
2018-04-29T00:08:03.181Z,17.00
2018-04-29T00:10:31.377Z,18.83
2018-04-29T00:12:59.550Z,17.30
2018-04-29T00:15:27.712Z,18.37
2018-04-29T00:17:55.832Z,18.17
2018-04-29T00:20:23.981Z,18.00
2018-04-29T00:22:52.105Z,18.17
2018-04-29T00:25:20.405Z,18.10
2018-04-29T00:27:48.689Z,18.40
2018-04-29T00:30:16.838Z,18.83
2018-04-29T00:32:45.046Z,17.50
2018-04-29T00:35:13.197Z,17.00
2018-04-29T00:37:41.320Z,16.43
2018-04-29T00:40:09.453Z,17.77
2018-04-29T00:42:37.589Z,16.83
2018-04-29T00:45:05.797Z,16.87
2018-04-29T00:47:33.914Z,16.40
2018-04-29T00:50:02.082Z,17.97
2018-04-29T00:52:30.239Z,17.23
2018-04-29T00:54:58.384Z,16.00
2018-04-29T00:57:26.522Z,17.97
2018-04-29T00:59:54.651Z,19.00
2018-04-29T01:02:22.808Z,18.80
2018-04-29T01:04:50.948Z,15.97
2018-04-29T01:07:19.096Z,16.23
2018-04-29T01:09:47.260Z,17.03
2018-04-29T01:12:15.405Z,17.17
2018-04-29T01:14:43.540Z,17.37
2018-04-29T01:17:11.689Z,17.10
2018-04-29T01:19:39.814Z,17.20
2018-04-29T01:22:07.944Z,18.80
2018-04-29T01:24:36.074Z,17.50
2018-04-29T01:27:04.204Z,16.67
2018-04-29T01:29:32.355Z,16.40
2018-04-29T01:32:00.506Z,17.27
2018-04-29T01:34:28.623Z,17.43
2018-04-29T01:36:56.769Z,17.48
2018-04-29T01:39:24.902Z,16.33
2018-04-29T01:41:53.050Z,16.83
2018-04-29T01:44:21.190Z,16.77
2018-04-29T01:46:49.318Z,16.43
2018-04-29T01:49:17.445Z,18.05
2018-04-29T01:51:45.626Z,18.17
2018-04-29T01:54:13.711Z,18.20
2018-04-29T01:56:41.859Z,16.30
2018-04-29T01:59:09.982Z,19.17
2018-04-29T02:01:38.110Z,17.33
2018-04-29T02:04:06.262Z,18.33
2018-04-29T02:06:34.409Z,18.30
2018-04-29T02:09:02.518Z,17.67
2018-04-29T02:11:30.667Z,16.30
2018-04-29T02:13:58.792Z,17.17
2018-04-29T02:16:26.925Z,17.67
2018-04-29T02:18:55.063Z,17.20
2018-04-29T02:21:23.766Z,20.05
2018-04-29T02:23:52.613Z,19.07
2018-04-29T02:26:20.759Z,18.23
2018-04-29T02:28:48.895Z,19.40
2018-04-29T02:31:17.034Z,18.48
2018-04-29T02:33:45.166Z,17.97
2018-04-29T02:36:13.291Z,16.63
2018-04-29T02:38:41.422Z,17.00
2018-04-29T02:41:09.547Z,16.67
2018-04-29T02:43:37.700Z,17.30
2018-04-29T02:46:05.818Z,16.87
2018-04-29T02:48:33.955Z,19.37
2018-04-29T02:51:02.071Z,16.90
2018-04-29T02:53:30.206Z,17.17
2018-04-29T02:55:58.352Z,16.90
2018-04-29T02:58:26.480Z,17.07
2018-04-29T03:00:54.633Z,17.50
2018-04-29T03:03:22.762Z,17.90
2018-04-29T03:05:50.890Z,18.30
2018-04-29T03:08:19.025Z,17.40
2018-04-29T03:10:47.163Z,18.23
2018-04-29T03:13:15.368Z,16.10
2018-04-29T03:15:43.502Z,16.20
2018-04-29T03:18:11.645Z,16.90
2018-04-29T03:20:39.767Z,16.80
2018-04-29T03:23:07.916Z,16.33
2018-04-29T03:25:36.050Z,18.00
2018-04-29T03:28:04.202Z,17.33
2018-04-29T03:30:32.388Z,15.70
2018-04-29T03:33:00.519Z,17.20
2018-04-29T03:35:28.643Z,16.30
2018-04-29T03:37:56.798Z,17.07
2018-04-29T03:40:24.919Z,18.63
2018-04-29T03:42:53.061Z,17.92
2018-04-29T03:45:21.189Z,19.65
2018-04-29T03:47:49.332Z,18.17
2018-04-29T03:50:17.466Z,17.80
2018-04-29T03:52:45.593Z,17.67
2018-04-29T03:55:13.738Z,17.17
2018-04-29T03:57:53.693Z,18.10
2018-04-29T04:00:33.490Z,17.30
2018-04-29T04:03:13.626Z,18.40
2018-04-29T04:05:41.762Z,18.50
2018-04-29T04:08:09.897Z,19.10
2018-04-29T04:10:38.031Z,18.27
2018-04-29T04:13:06.235Z,18.80
2018-04-29T04:15:34.354Z,17.37
2018-04-29T04:18:02.485Z,18.30
2018-04-29T04:20:30.623Z,17.27
2018-04-29T04:22:58.764Z,17.60
2018-04-29T04:25:26.912Z,19.27
2018-04-29T04:27:55.046Z,18.47
2018-04-29T04:30:23.205Z,17.97
2018-04-29T04:32:51.343Z,18.83
2018-04-29T04:35:19.495Z,18.33
2018-04-29T04:37:47.611Z,18.23
2018-04-29T04:40:15.807Z,17.20
2018-04-29T04:42:43.904Z,18.00
2018-04-29T04:45:12.043Z,17.67
2018-04-29T04:47:40.196Z,16.73
2018-04-29T04:50:08.337Z,18.20
2018-04-29T04:52:36.470Z,17.93
2018-04-29T04:55:04.612Z,18.73
2018-04-29T04:57:32.740Z,18.17
2018-04-29T05:00:00.864Z,17.40
2018-04-29T05:02:29.015Z,18.60
2018-04-29T05:04:57.135Z,16.03
2018-04-29T05:07:25.287Z,15.77
2018-04-29T05:09:53.405Z,16.50
2018-04-29T05:12:21.535Z,17.13
2018-04-29T05:14:49.667Z,15.73
2018-04-29T05:17:17.790Z,16.27
2018-04-29T05:19:45.928Z,16.20
2018-04-29T05:22:14.132Z,17.20
2018-04-29T05:24:42.195Z,16.40
2018-04-29T05:27:10.781Z,15.83
2018-04-29T05:29:38.933Z,17.60
2018-04-29T05:32:07.049Z,16.00
2018-04-29T05:34:35.175Z,15.07
2018-04-29T05:37:03.304Z,15.43
2018-04-29T05:39:31.442Z,16.23
2018-04-29T05:41:59.575Z,15.23
2018-04-29T05:44:27.706Z,15.90
2018-04-29T05:46:55.855Z,16.90
2018-04-29T05:49:23.988Z,15.40
2018-04-29T05:51:52.145Z,15.67
2018-04-29T05:54:20.289Z,15.17
2018-04-29T05:56:48.450Z,15.50
2018-04-29T05:59:16.600Z,15.60
2018-04-29T06:01:44.715Z,14.47
2018-04-29T06:04:12.863Z,15.20
2018-04-29T06:06:41.040Z,14.50
2018-04-29T06:09:09.872Z,14.45
2018-04-29T06:11:37.948Z,15.00
2018-04-29T06:14:06.144Z,15.07
2018-04-29T06:16:35.102Z,15.20
2018-04-29T06:19:03.232Z,14.80
2018-04-29T06:21:31.376Z,14.33
2018-04-29T06:23:59.514Z,13.00
2018-04-29T06:26:27.649Z,13.70
2018-04-29T06:28:55.793Z,11.93
2018-04-29T06:31:23.916Z,12.52
2018-04-29T06:33:52.071Z,12.30
2018-04-29T06:36:20.208Z,11.40
2018-04-29T06:38:48.350Z,12.87
2018-04-29T06:41:16.499Z,10.10
2018-04-29T06:43:44.629Z,12.68
2018-04-29T06:46:12.795Z,12.87
2018-04-29T06:48:40.945Z,12.20
2018-04-29T06:51:09.072Z,12.37
2018-04-29T06:53:37.229Z,11.60
2018-04-29T06:56:05.359Z,13.00
2018-04-29T06:58:33.480Z,11.67
2018-04-29T07:01:01.606Z,10.27
2018-04-29T07:03:29.780Z,12.13
2018-04-29T07:05:57.903Z,11.23
2018-04-29T07:08:26.053Z,11.27
2018-04-29T07:10:54.191Z,10.87
2018-04-29T07:13:22.327Z,12.37
2018-04-29T07:15:50.461Z,11.23
2018-04-29T07:18:18.743Z,11.50
2018-04-29T07:20:46.880Z,11.27
2018-04-29T07:23:15.031Z,13.43
2018-04-29T07:25:43.167Z,14.67
2018-04-29T07:28:11.342Z,12.90
2018-04-29T07:30:39.479Z,12.67
2018-04-29T07:33:07.608Z,13.40
2018-04-29T07:35:35.756Z,12.68
2018-04-29T07:38:03.887Z,13.40
2018-04-29T07:40:32.026Z,12.90
2018-04-29T07:43:00.174Z,12.23
2018-04-29T07:45:28.324Z,12.37
2018-04-29T07:47:56.484Z,12.03
2018-04-29T07:50:24.625Z,11.60
2018-04-29T07:52:52.751Z,10.10
2018-04-29T07:55:20.909Z,10.13
2018-04-29T07:57:49.037Z,11.73
2018-04-29T08:00:17.171Z,10.80
2018-04-29T08:02:45.316Z,10.23
2018-04-29T08:05:13.530Z,10.67
2018-04-29T08:07:41.680Z,11.00
2018-04-29T08:10:09.846Z,10.03
2018-04-29T08:12:37.969Z,10.90
2018-04-29T08:15:06.193Z,10.30
2018-04-29T08:17:34.313Z,9.40
2018-04-29T08:20:02.435Z,9.10
2018-04-29T08:22:30.563Z,9.80
2018-04-29T08:24:58.730Z,10.20
2018-04-29T08:27:26.887Z,8.98
2018-04-29T08:29:55.071Z,10.23
2018-04-29T08:32:23.204Z,8.90
2018-04-29T08:34:51.327Z,9.47
2018-04-29T08:37:19.447Z,10.13
2018-04-29T08:39:47.639Z,10.80
2018-04-29T08:42:15.763Z,9.40
2018-04-29T08:44:43.882Z,9.60
2018-04-29T08:47:12.081Z,9.80
2018-04-29T08:49:40.176Z,9.30
2018-04-29T08:52:08.290Z,9.50
2018-04-29T08:54:36.456Z,7.90
2018-04-29T08:57:04.607Z,9.17
2018-04-29T08:59:32.766Z,9.63
2018-04-29T09:02:00.924Z,8.37
2018-04-29T09:04:29.063Z,7.87
2018-04-29T09:06:57.229Z,8.57
2018-04-29T09:09:25.404Z,7.75
2018-04-29T09:11:53.540Z,8.17
2018-04-29T09:14:21.667Z,7.07
2018-04-29T09:16:49.836Z,7.20
2018-04-29T09:19:17.971Z,7.73
2018-04-29T09:21:46.099Z,7.10
2018-04-29T09:24:14.233Z,7.10
2018-04-29T09:26:42.527Z,7.22
2018-04-29T09:29:10.676Z,8.40
2018-04-29T09:31:38.800Z,7.67
2018-04-29T09:34:06.941Z,8.53
2018-04-29T09:36:35.071Z,7.10
2018-04-29T09:39:03.210Z,7.20
2018-04-29T09:41:32.319Z,8.03
2018-04-29T09:44:00.483Z,7.80
2018-04-29T09:46:28.611Z,6.33
2018-04-29T09:48:56.784Z,6.53
2018-04-29T09:51:24.940Z,6.00
2018-04-29T09:53:53.095Z,7.00
2018-04-29T09:56:21.239Z,6.00
2018-04-29T09:58:49.399Z,5.65
2018-04-29T10:01:25.011Z,6.10
2018-04-29T10:03:53.157Z,6.30
2018-04-29T10:06:21.307Z,5.40
2018-04-29T10:08:49.444Z,5.40
2018-04-29T10:11:17.559Z,5.15
2018-04-29T10:13:45.717Z,5.93
2018-04-29T10:18:48.344Z,4.80
2018-04-29T10:21:16.452Z,5.25
2018-04-29T10:23:44.585Z,4.63
2018-04-29T10:26:12.709Z,4.67
2018-04-29T10:28:40.839Z,5.80
2018-04-29T10:31:09.998Z,5.53
2018-04-29T10:33:38.124Z,5.70
2018-04-29T10:36:06.262Z,5.65
2018-04-29T10:38:34.395Z,4.50
2018-04-29T10:41:02.594Z,5.20
2018-04-29T10:43:30.675Z,6.03
2018-04-29T10:45:58.793Z,5.40
2018-04-29T10:48:26.914Z,5.10
2018-04-29T10:50:55.065Z,4.43
2018-04-29T10:53:23.277Z,4.35
2018-04-29T10:55:51.422Z,5.70
2018-04-29T10:58:19.556Z,4.40
2018-04-29T11:00:47.707Z,5.40
2018-04-29T11:03:15.839Z,4.87
2018-04-29T11:05:43.977Z,4.67
2018-04-29T11:08:12.119Z,4.80
2018-04-29T11:10:40.279Z,5.37
2018-04-29T11:13:08.400Z,4.47
2018-04-29T11:15:36.558Z,4.00
2018-04-29T11:18:05.394Z,4.90
2018-04-29T11:20:33.510Z,5.00
2018-04-29T11:23:01.659Z,5.50
2018-04-29T11:25:29.807Z,5.77
2018-04-29T11:27:57.941Z,4.03
2018-04-29T11:30:26.101Z,5.30
2018-04-29T11:32:54.227Z,4.90
2018-04-29T11:35:22.376Z,4.70
2018-04-29T11:37:50.505Z,5.77
2018-04-29T11:40:18.660Z,4.60
2018-04-29T11:42:46.803Z,5.93
2018-04-29T11:45:14.966Z,5.10
2018-04-29T11:47:43.115Z,4.70
2018-04-29T11:50:11.272Z,4.50
2018-04-29T11:52:39.401Z,4.73
2018-04-29T11:55:07.557Z,5.10
2018-04-29T11:57:35.677Z,5.40
2018-04-29T12:00:03.842Z,4.83
2018-04-29T12:02:31.959Z,4.60
2018-04-29T12:05:00.111Z,6.37
2018-04-29T12:07:28.282Z,4.40
2018-04-29T12:09:56.463Z,5.17
2018-04-29T12:12:24.554Z,4.63
2018-04-29T12:14:52.724Z,4.80
2018-04-29T12:17:20.845Z,4.60
2018-04-29T12:19:49.025Z,5.28
2018-04-29T12:22:17.159Z,4.70
2018-04-29T12:24:45.299Z,6.13
2018-04-29T12:27:13.433Z,5.50
2018-04-29T12:29:41.554Z,6.57
2018-04-29T12:32:09.701Z,5.77
2018-04-29T12:34:37.841Z,4.75
2018-04-29T12:37:06.079Z,5.30
2018-04-29T12:39:34.220Z,5.03
2018-04-29T12:42:02.362Z,5.20
2018-04-29T12:44:30.478Z,5.70
2018-04-29T12:46:58.611Z,4.10
2018-04-29T12:49:26.749Z,5.47
2018-04-29T12:51:54.889Z,5.33
2018-04-29T12:54:23.814Z,5.60
2018-04-29T12:56:51.941Z,4.80
2018-04-29T12:59:20.063Z,5.73
2018-04-29T13:01:48.189Z,5.03
2018-04-29T13:04:16.327Z,5.50
2018-04-29T13:06:44.877Z,5.23
2018-04-29T13:09:12.994Z,5.47
2018-04-29T13:11:41.133Z,5.62
2018-04-29T13:14:09.260Z,4.73
2018-04-29T13:16:37.375Z,5.57
2018-04-29T13:19:05.536Z,5.20
2018-04-29T13:21:33.652Z,4.13
2018-04-29T13:24:01.786Z,5.57
2018-04-29T13:26:29.908Z,5.67
2018-04-29T13:28:58.037Z,5.30
2018-04-29T13:31:26.166Z,4.35
2018-04-29T13:33:54.304Z,5.40
2018-04-29T13:36:22.430Z,5.53
2018-04-29T13:38:50.613Z,4.43
2018-04-29T13:41:18.732Z,5.22
2018-04-29T13:43:46.854Z,4.60
2018-04-29T13:46:15.026Z,4.53
2018-04-29T13:48:43.149Z,5.13
2018-04-29T13:51:11.279Z,5.50
2018-04-29T13:53:39.398Z,5.07
2018-04-29T13:56:07.520Z,5.13
2018-04-29T13:58:35.658Z,4.87
2018-04-29T14:01:03.794Z,5.10
2018-04-29T14:03:31.943Z,4.73
2018-04-29T14:06:00.097Z,5.10
2018-04-29T14:08:28.223Z,4.80
2018-04-29T14:10:56.366Z,4.63
2018-04-29T14:13:24.479Z,4.97
2018-04-29T14:15:52.608Z,5.50
2018-04-29T14:18:20.802Z,5.20
2018-04-29T14:20:48.944Z,4.77
2018-04-29T14:23:17.079Z,5.60
2018-04-29T14:25:45.207Z,5.33
2018-04-29T14:28:13.340Z,4.90
2018-04-29T14:30:41.463Z,5.73
2018-04-29T14:33:09.987Z,5.23
2018-04-29T14:35:38.137Z,5.07
2018-04-29T14:38:06.268Z,4.87
2018-04-29T14:40:34.529Z,5.00
2018-04-29T14:43:02.656Z,5.07
2018-04-29T14:45:31.028Z,4.57
2018-04-29T14:47:59.162Z,5.50
2018-04-29T14:50:27.308Z,6.27
2018-04-29T14:52:55.457Z,5.80
2018-04-29T14:55:23.638Z,5.72
2018-04-29T14:57:51.757Z,5.20
2018-04-29T15:00:19.951Z,5.87
2018-04-29T15:02:48.076Z,5.10
2018-04-29T15:05:16.215Z,5.10
2018-04-29T15:07:44.360Z,5.37
2018-04-29T15:10:12.666Z,5.63
2018-04-29T15:12:40.779Z,5.03
2018-04-29T15:15:08.909Z,5.30
2018-04-29T15:17:37.076Z,5.57
2018-04-29T15:20:05.221Z,5.40
2018-04-29T15:22:33.358Z,4.80
2018-04-29T15:25:01.536Z,5.83
2018-04-29T15:27:29.666Z,6.23
2018-04-29T15:29:57.798Z,6.00
2018-04-29T15:32:25.984Z,4.87
2018-04-29T15:34:54.520Z,5.23
2018-04-29T15:37:24.043Z,5.07
2018-04-29T15:39:52.171Z,5.70
2018-04-29T15:42:20.301Z,4.50
2018-04-29T15:44:48.410Z,6.20
2018-04-29T15:47:16.534Z,4.43
2018-04-29T15:49:44.663Z,5.93
2018-04-29T15:52:12.795Z,5.10
2018-04-29T15:54:40.909Z,4.80
2018-04-29T15:57:09.880Z,5.63
2018-04-29T15:59:38.011Z,5.73
2018-04-29T16:02:06.136Z,5.23
2018-04-29T16:04:34.257Z,6.03
2018-04-29T16:07:02.411Z,5.57
2018-04-29T16:09:30.551Z,5.73
2018-04-29T16:11:58.669Z,5.30
2018-04-29T16:14:26.833Z,5.93
2018-04-29T16:16:54.981Z,4.70
2018-04-29T16:19:23.105Z,4.87
2018-04-29T16:21:51.231Z,6.70
2018-04-29T16:24:19.424Z,5.50
2018-04-29T16:26:47.606Z,5.33
2018-04-29T16:29:15.742Z,6.85
2018-04-29T16:31:43.891Z,5.57
2018-04-29T16:34:12.068Z,5.33
2018-04-29T16:36:40.201Z,5.53
2018-04-29T16:39:08.354Z,5.53
2018-04-29T16:41:36.482Z,5.40
2018-04-29T16:44:04.685Z,5.57
2018-04-29T16:46:32.855Z,6.43
2018-04-29T16:49:01.034Z,5.80
2018-04-29T16:51:29.185Z,5.80
2018-04-29T16:53:57.339Z,5.57
2018-04-29T16:56:25.470Z,5.90
2018-04-29T16:58:53.597Z,5.60
2018-04-29T17:01:21.754Z,6.70
2018-04-29T17:03:49.867Z,5.67
2018-04-29T17:06:18.012Z,6.10
2018-04-29T17:08:46.180Z,5.97
2018-04-29T17:11:14.312Z,5.78
2018-04-29T17:13:42.443Z,6.13
2018-04-29T17:16:10.589Z,5.67
2018-04-29T17:18:38.761Z,6.82
2018-04-29T17:21:06.990Z,6.23
2018-04-29T17:23:35.104Z,5.57
2018-04-29T17:26:03.248Z,7.10
2018-04-29T17:28:31.363Z,5.33
2018-04-29T17:30:59.498Z,5.63
2018-04-29T17:33:27.648Z,5.65
2018-04-29T17:35:55.770Z,6.80
2018-04-29T17:38:23.902Z,5.53
2018-04-29T17:40:52.021Z,5.97
2018-04-29T17:43:20.157Z,5.65
2018-04-29T17:45:48.275Z,5.97
2018-04-29T17:48:16.413Z,6.00
2018-04-29T17:50:44.538Z,5.90
2018-04-29T17:53:12.748Z,5.83
2018-04-29T17:55:40.865Z,6.53
2018-04-29T17:58:09.003Z,6.15
2018-04-29T18:00:37.128Z,5.93
2018-04-29T18:03:05.313Z,6.17
2018-04-29T18:05:33.444Z,6.20
2018-04-29T18:08:01.611Z,7.20
2018-04-29T18:10:30.098Z,5.90
2018-04-29T18:12:58.274Z,6.17
2018-04-29T18:15:26.404Z,6.45
2018-04-29T18:17:54.531Z,5.67
2018-04-29T18:20:22.655Z,4.90
2018-04-29T18:22:50.825Z,5.40
2018-04-29T18:25:18.977Z,4.72
2018-04-29T18:27:47.206Z,5.53
2018-04-29T18:30:15.261Z,5.25
2018-04-29T18:32:43.805Z,5.70
2018-04-29T18:35:12.055Z,5.80
2018-04-29T18:37:40.222Z,5.10
2018-04-29T18:40:08.375Z,4.87
2018-04-29T18:42:36.505Z,5.07
2018-04-29T18:45:04.667Z,5.03
2018-04-29T18:47:32.805Z,5.50
2018-04-29T18:50:00.993Z,6.07
2018-04-29T18:52:29.139Z,5.80
2018-04-29T18:54:57.327Z,5.13
2018-04-29T18:57:25.500Z,5.77
2018-04-29T18:59:53.768Z,5.40
2018-04-29T19:02:21.984Z,6.57
2018-04-29T19:04:50.165Z,5.37
2018-04-29T19:07:18.342Z,5.12
2018-04-29T19:09:46.521Z,6.03
2018-04-29T19:12:14.719Z,5.57
2018-04-29T19:14:42.907Z,6.80
2018-04-29T19:17:11.097Z,7.07
2018-04-29T19:19:39.282Z,6.37
2018-04-29T19:22:07.415Z,5.40
2018-04-29T19:24:35.614Z,6.57
2018-04-29T19:27:03.810Z,6.20
2018-04-29T19:29:31.991Z,6.70
2018-04-29T19:32:00.182Z,6.00
2018-04-29T19:34:28.309Z,5.73
2018-04-29T19:36:56.443Z,6.07
2018-04-29T19:39:27.388Z,6.47
2018-04-29T19:41:55.502Z,6.73
2018-04-29T19:44:23.627Z,5.97
2018-04-29T19:46:51.748Z,6.87
2018-04-29T19:49:19.875Z,6.32
2018-04-29T19:51:48.565Z,5.90
2018-04-29T19:54:16.747Z,6.10
2018-04-29T19:56:44.865Z,5.87
2018-04-29T19:59:13.003Z,7.10
2018-04-29T20:01:41.131Z,6.00
2018-04-29T20:04:09.264Z,6.00
2018-04-29T20:06:37.378Z,7.23
2018-04-29T20:09:05.590Z,7.10
2018-04-29T20:11:33.844Z,7.73
2018-04-29T20:14:01.871Z,6.73
2018-04-29T20:16:29.991Z,6.73
2018-04-29T20:18:58.112Z,6.97
2018-04-29T20:21:26.243Z,7.57
2018-04-29T20:23:54.472Z,6.10
2018-04-29T20:26:22.504Z,6.90
2018-04-29T20:28:50.634Z,6.13
2018-04-29T20:31:18.762Z,6.97
2018-04-29T20:33:46.900Z,7.47
2018-04-29T20:36:15.030Z,6.83
2018-04-29T20:38:43.165Z,5.93
2018-04-29T20:41:11.298Z,6.37
2018-04-29T20:43:39.415Z,6.50
2018-04-29T20:46:07.550Z,6.67
2018-04-29T20:48:35.765Z,7.03
2018-04-29T20:51:04.189Z,6.53
2018-04-29T20:53:32.330Z,6.33
2018-04-29T20:56:00.456Z,7.60
2018-04-29T20:58:28.630Z,5.50
2018-04-29T21:00:56.772Z,6.93
2018-04-29T21:03:24.899Z,6.43
2018-04-29T21:05:53.023Z,7.20
2018-04-29T21:08:21.149Z,6.90
2018-04-29T21:10:49.265Z,8.13
2018-04-29T21:13:17.430Z,6.55
2018-04-29T21:15:45.543Z,6.87
2018-04-29T21:18:13.670Z,6.53
2018-04-29T21:20:41.800Z,6.17
2018-04-29T21:23:10.537Z,6.27
2018-04-29T21:25:38.662Z,7.33
2018-04-29T21:28:06.791Z,6.57
2018-04-29T21:30:35.526Z,7.07
2018-04-29T21:33:03.642Z,6.87
2018-04-29T21:35:31.782Z,5.90
2018-04-29T21:37:59.939Z,6.23
2018-04-29T21:40:28.035Z,6.00
2018-04-29T21:42:56.955Z,6.60
2018-04-29T21:45:25.093Z,6.62
2018-04-29T21:47:53.247Z,7.10
2018-04-29T21:50:21.371Z,6.77
2018-04-29T21:52:49.495Z,6.57
2018-04-29T21:55:17.607Z,6.97
2018-04-29T21:57:45.754Z,7.33
2018-04-29T22:00:13.881Z,7.50
2018-04-29T22:02:41.991Z,7.47
2018-04-29T22:05:10.108Z,6.87
2018-04-29T22:07:38.232Z,7.50
2018-04-29T22:10:06.372Z,7.63
2018-04-29T22:12:34.490Z,6.50
2018-04-29T22:15:02.634Z,7.60
2018-04-29T22:17:30.763Z,7.80
2018-04-29T22:19:59.144Z,7.70
2018-04-29T22:22:28.042Z,7.97
2018-04-29T22:24:56.170Z,7.47
2018-04-29T22:27:24.292Z,7.22
2018-04-29T22:29:52.422Z,7.40
2018-04-29T22:32:20.544Z,6.20
2018-04-29T22:34:48.665Z,6.87
2018-04-29T22:37:16.869Z,7.20
2018-04-29T22:39:44.910Z,7.30
2018-04-29T22:42:13.030Z,7.10
2018-04-29T22:44:41.152Z,8.10
2018-04-29T22:47:09.276Z,6.90
2018-04-29T22:49:37.414Z,7.30
2018-04-29T22:52:05.535Z,8.07
2018-04-29T22:54:33.755Z,7.43
2018-04-29T22:57:01.891Z,7.50
2018-04-29T22:59:30.021Z,7.60
2018-04-29T23:01:58.145Z,6.57
2018-04-29T23:04:26.273Z,6.87
2018-04-29T23:06:54.401Z,7.73
2018-04-29T23:09:22.547Z,7.83
2018-04-29T23:11:50.682Z,8.27
2018-04-29T23:14:18.806Z,7.00
2018-04-29T23:16:46.928Z,8.80
2018-04-29T23:19:15.059Z,7.87
2018-04-29T23:21:43.185Z,9.00
2018-04-29T23:24:11.311Z,8.20
2018-04-29T23:26:39.439Z,9.20
2018-04-29T23:29:07.606Z,8.77
2018-04-29T23:31:35.722Z,8.37
2018-04-29T23:34:03.876Z,8.90
2018-04-29T23:36:32.015Z,7.20
2018-04-29T23:39:00.148Z,9.00
2018-04-29T23:41:28.280Z,8.52
2018-04-29T23:43:56.415Z,8.30
2018-04-29T23:46:24.550Z,8.93
2018-04-29T23:48:52.810Z,7.67
2018-04-29T23:51:20.939Z,8.43
2018-04-29T23:53:49.072Z,8.77
2018-04-29T23:56:17.232Z,9.43
2018-04-29T23:58:45.380Z,9.53
